createdAt,value
2022-09-10T00:01:38.251Z,20.59
2022-09-10T00:04:15.639Z,20.58
2022-09-10T00:06:44.874Z,20.56
2022-09-10T00:09:14.935Z,20.51
2022-09-10T00:11:43.280Z,20.52
2022-09-10T00:14:17.372Z,20.56
2022-09-10T00:16:45.369Z,20.57
2022-09-10T00:19:14.876Z,20.57
2022-09-10T00:21:45.377Z,20.56
2022-09-10T00:29:00.188Z,20.50
2022-09-10T00:31:31.904Z,20.57
2022-09-10T00:34:04.186Z,20.58
2022-09-10T00:36:38.451Z,20.52
2022-09-10T00:39:15.239Z,20.63
2022-09-10T00:41:47.424Z,20.64
2022-09-10T00:44:41.392Z,20.66
2022-09-10T00:47:23.704Z,20.64
2022-09-10T00:50:29.153Z,20.63
2022-09-10T00:53:07.337Z,20.59
2022-09-10T00:55:38.322Z,20.61
2022-09-10T00:58:10.361Z,20.63
2022-09-10T01:00:41.454Z,20.63
2022-09-10T01:03:32.862Z,20.65
2022-09-10T01:06:03.150Z,20.67
2022-09-10T01:08:32.098Z,20.68
2022-09-10T01:11:48.209Z,20.66
2022-09-10T01:14:21.151Z,20.67
2022-09-10T01:17:45.850Z,20.69
2022-09-10T01:20:40.492Z,20.66
2022-09-10T01:23:41.674Z,20.68
2022-09-10T01:26:49.373Z,20.65
2022-09-10T01:30:04.031Z,20.65
2022-09-10T01:33:17.960Z,20.60
2022-09-10T01:35:56.168Z,20.57
2022-09-10T01:38:32.457Z,20.68
2022-09-10T01:41:02.858Z,20.70
2022-09-10T01:43:36.122Z,20.70
2022-09-10T01:46:44.807Z,20.73
2022-09-10T01:49:32.145Z,20.71
2022-09-10T01:52:38.934Z,20.67
2022-09-10T01:55:17.894Z,20.67
2022-09-10T01:58:23.213Z,20.67
2022-09-10T02:01:29.472Z,20.63
2022-09-10T02:04:06.882Z,20.56
2022-09-10T02:06:40.214Z,20.57
2022-09-10T02:09:12.692Z,20.60
2022-09-10T02:11:54.193Z,20.64
2022-09-10T02:14:43.568Z,20.58
2022-09-10T02:17:20.896Z,20.62
2022-09-10T02:19:52.443Z,20.61
2022-09-10T02:22:23.977Z,20.63
2022-09-10T02:24:52.808Z,20.60
2022-09-10T02:27:21.376Z,20.69
2022-09-10T02:29:49.683Z,20.68
2022-09-10T02:32:18.996Z,20.72
2022-09-10T02:34:48.149Z,20.75
2022-09-10T02:37:16.900Z,20.74
2022-09-10T02:39:45.510Z,20.75
2022-09-10T02:42:17.168Z,20.74
2022-09-10T02:44:48.174Z,20.77
2022-09-10T02:47:18.363Z,20.76
2022-09-10T02:49:46.034Z,20.79
2022-09-10T02:52:14.952Z,20.85
2022-09-10T02:54:43.017Z,20.85
2022-09-10T02:57:12.504Z,20.84
2022-09-10T02:59:40.705Z,20.86
2022-09-10T03:02:10.066Z,20.89
2022-09-10T03:04:40.822Z,20.91
2022-09-10T03:07:08.719Z,20.90
2022-09-10T03:09:37.167Z,20.90
2022-09-10T03:12:07.043Z,20.88
2022-09-10T03:14:35.036Z,20.92
2022-09-10T03:17:04.031Z,20.92
2022-09-10T03:19:35.206Z,20.91
2022-09-10T03:22:04.585Z,20.91
2022-09-10T03:24:37.816Z,20.91
2022-09-10T03:27:08.520Z,20.89
2022-09-10T03:29:36.968Z,20.87
2022-09-10T03:32:06.925Z,20.80
2022-09-10T03:34:35.263Z,20.83
2022-09-10T03:37:03.540Z,20.82
2022-09-10T03:39:32.680Z,20.80
2022-09-10T03:42:00.484Z,20.80
2022-09-10T03:44:30.583Z,20.79
2022-09-10T03:46:59.109Z,20.78
2022-09-10T03:49:30.595Z,20.81
2022-09-10T03:52:00.517Z,20.74
2022-09-10T03:54:29.263Z,20.79
2022-09-10T03:56:57.312Z,20.77
2022-09-10T03:59:25.098Z,20.77
2022-09-10T04:01:59.255Z,20.79
2022-09-10T04:04:27.569Z,20.78
2022-09-10T04:06:56.465Z,20.80
2022-09-10T04:09:24.427Z,20.80
2022-09-10T04:11:54.640Z,20.81
2022-09-10T04:14:26.993Z,20.81
2022-09-10T04:16:56.256Z,20.82
2022-09-10T04:19:25.120Z,20.81
2022-09-10T04:21:53.340Z,20.78
2022-09-10T04:24:22.345Z,20.78
2022-09-10T04:26:51.132Z,20.82
2022-09-10T04:29:20.040Z,20.84
2022-09-10T04:31:48.427Z,20.84
2022-09-10T04:34:19.723Z,20.85
2022-09-10T04:36:47.817Z,20.84
2022-09-10T04:39:18.402Z,20.85
2022-09-10T04:41:48.797Z,20.86
2022-09-10T04:44:20.376Z,20.86
2022-09-10T04:46:49.075Z,20.85
2022-09-10T04:49:18.321Z,20.85
2022-09-10T04:51:46.888Z,20.86
2022-09-10T04:54:16.786Z,20.84
2022-09-10T04:56:47.971Z,20.86
2022-09-10T04:59:16.728Z,20.83
2022-09-10T05:01:51.699Z,20.92
2022-09-10T05:04:19.876Z,20.90
2022-09-10T05:06:50.527Z,20.94
2022-09-10T05:09:19.361Z,20.93
2022-09-10T05:11:50.110Z,20.91
2022-09-10T05:14:21.084Z,20.94
2022-09-10T05:16:50.145Z,20.97
2022-09-10T05:19:26.486Z,20.96
2022-09-10T05:22:00.496Z,20.94
2022-09-10T05:24:29.139Z,20.97
2022-09-10T05:26:59.503Z,20.96
2022-09-10T05:29:27.838Z,20.96
2022-09-10T05:31:55.856Z,20.96
2022-09-10T05:34:26.124Z,20.96
2022-09-10T05:36:55.853Z,20.94
2022-09-10T05:39:24.196Z,20.90
2022-09-10T05:41:53.093Z,20.96
2022-09-10T05:44:22.872Z,20.97
2022-09-10T05:46:50.847Z,20.99
2022-09-10T05:49:19.186Z,20.97
2022-09-10T05:51:48.769Z,21.04
2022-09-10T05:54:19.196Z,21.05
2022-09-10T05:56:48.789Z,21.12
2022-09-10T05:59:18.137Z,21.16
2022-09-10T06:01:53.410Z,21.20
2022-09-10T06:04:24.246Z,21.26
2022-09-10T06:06:54.420Z,21.30
2022-09-10T06:09:23.359Z,21.34
2022-09-10T06:12:00.428Z,21.31
2022-09-10T06:14:30.334Z,21.40
2022-09-10T06:16:59.322Z,21.48
2022-09-10T06:19:31.748Z,21.49
2022-09-10T06:22:00.191Z,21.53
2022-09-10T06:24:29.741Z,21.55
2022-09-10T06:26:58.804Z,21.57
2022-09-10T06:29:49.943Z,21.57
2022-09-10T06:32:39.741Z,21.56
2022-09-10T06:35:09.769Z,21.40
2022-09-10T06:37:38.646Z,21.49
2022-09-10T06:40:10.141Z,21.52
2022-09-10T06:42:39.267Z,21.58
2022-09-10T06:45:28.431Z,21.58
2022-09-10T06:48:47.609Z,21.60
2022-09-10T06:51:17.760Z,21.62
2022-09-10T06:53:46.982Z,21.66
2022-09-10T06:56:18.427Z,21.56
2022-09-10T06:58:46.853Z,21.65
2022-09-10T07:01:19.610Z,21.69
2022-09-10T07:03:57.891Z,21.64
2022-09-10T07:06:35.967Z,21.60
2022-09-10T07:09:11.362Z,21.58
2022-09-10T07:11:58.345Z,21.59
2022-09-10T07:14:29.642Z,21.62
2022-09-10T07:17:02.467Z,21.68
2022-09-10T07:19:33.421Z,21.60
2022-09-10T07:22:01.793Z,21.69
2022-09-10T07:24:33.724Z,21.76
2022-09-10T07:27:11.417Z,21.79
2022-09-10T07:29:42.890Z,21.82
2022-09-10T07:32:27.653Z,21.90
2022-09-10T07:35:10.666Z,22.07
2022-09-10T07:37:40.217Z,22.13
2022-09-10T07:40:11.887Z,22.22
2022-09-10T07:42:40.357Z,22.29
2022-09-10T07:45:16.219Z,22.32
2022-09-10T07:47:44.771Z,22.36
2022-09-10T07:50:14.943Z,22.35
2022-09-10T07:52:43.067Z,22.34
2022-09-10T07:55:13.269Z,22.40
2022-09-10T07:57:42.161Z,22.46
2022-09-10T08:00:18.422Z,22.46
2022-09-10T08:02:53.753Z,22.38
2022-09-10T08:05:24.207Z,22.55
2022-09-10T08:07:57.518Z,22.58
2022-09-10T08:10:28.033Z,22.60
2022-09-10T08:12:59.596Z,22.65
2022-09-10T08:15:27.828Z,22.67
2022-09-10T08:17:58.858Z,22.67
2022-09-10T08:20:27.349Z,22.80
2022-09-10T08:22:57.404Z,22.82
2022-09-10T08:25:29.154Z,22.88
2022-09-10T08:27:59.156Z,22.70
2022-09-10T08:30:30.431Z,22.85
2022-09-10T08:32:58.758Z,22.98
2022-09-10T08:35:27.545Z,23.12
2022-09-10T08:37:55.533Z,23.22
2022-09-10T08:40:23.668Z,23.27
2022-09-10T08:42:52.914Z,23.31
2022-09-10T08:45:27.550Z,23.40
2022-09-10T08:48:16.628Z,23.49
2022-09-10T08:50:55.785Z,23.50
2022-09-10T08:53:54.270Z,23.55
2022-09-10T08:56:24.601Z,23.65
2022-09-10T08:59:21.610Z,23.67
2022-09-10T09:01:56.970Z,23.85
2022-09-10T09:05:06.475Z,23.99
2022-09-10T09:07:40.252Z,24.00
2022-09-10T09:10:46.607Z,24.27
2022-09-10T09:13:35.343Z,24.40
2022-09-10T09:16:31.138Z,24.39
2022-09-10T09:19:39.002Z,24.48
2022-09-10T09:22:23.561Z,24.50
2022-09-10T09:25:07.795Z,24.55
2022-09-10T09:27:41.451Z,24.58
2022-09-10T09:30:24.109Z,24.69
2022-09-10T09:32:54.857Z,24.67
2022-09-10T09:35:38.988Z,24.71
2022-09-10T09:38:07.847Z,24.64
2022-09-10T09:40:52.575Z,24.69
2022-09-10T09:43:43.544Z,24.73
2022-09-10T09:46:21.037Z,24.77
2022-09-10T09:48:56.267Z,24.77
2022-09-10T09:51:30.982Z,24.68
2022-09-10T09:54:39.179Z,24.77
2022-09-10T09:56:54.601Z,24.83
2022-09-10T09:59:35.010Z,24.83
2022-09-10T10:02:29.170Z,24.85
2022-09-10T10:05:24.026Z,24.85
2022-09-10T10:07:52.683Z,24.78
2022-09-10T10:10:27.457Z,24.85
2022-09-10T10:12:57.115Z,24.84
2022-09-10T10:15:41.852Z,24.82
2022-09-10T10:18:36.776Z,24.80
2022-09-10T10:21:15.120Z,24.84
2022-09-10T10:23:43.857Z,24.80
2022-09-10T10:26:38.406Z,24.88
2022-09-10T10:29:18.450Z,24.89
2022-09-10T10:31:49.755Z,24.90
2022-09-10T10:35:19.192Z,24.88
2022-09-10T10:38:08.281Z,24.91
2022-09-10T10:41:03.730Z,24.86
2022-09-10T10:43:42.021Z,24.82
2022-09-10T10:46:21.644Z,24.80
2022-09-10T10:49:38.082Z,24.75
2022-09-10T10:52:26.635Z,24.82
2022-09-10T10:55:14.406Z,24.89
2022-09-10T10:58:06.490Z,24.98
2022-09-10T11:00:53.473Z,25.09
2022-09-10T11:03:53.192Z,25.11
2022-09-10T11:06:27.292Z,25.12
2022-09-10T11:09:21.660Z,25.12
2022-09-10T11:12:03.367Z,25.19
2022-09-10T11:15:02.653Z,25.19
2022-09-10T11:17:51.965Z,25.20
2022-09-10T11:20:36.249Z,25.21
2022-09-10T11:23:34.405Z,25.21
2022-09-10T11:26:18.371Z,25.25
2022-09-10T11:29:36.368Z,25.27
2022-09-10T11:32:36.707Z,25.29
2022-09-10T11:35:19.919Z,25.37
2022-09-10T11:38:10.534Z,25.47
2022-09-10T11:41:19.278Z,25.47
2022-09-10T11:44:29.213Z,25.46
2022-09-10T11:47:11.556Z,25.43
2022-09-10T11:50:33.838Z,25.46
2022-09-10T11:53:07.964Z,25.46
2022-09-10T11:55:42.334Z,25.53
2022-09-10T11:58:49.448Z,25.59
2022-09-10T12:02:08.303Z,25.62
2022-09-10T12:05:28.731Z,25.63
2022-09-10T12:08:24.829Z,25.70
2022-09-10T12:11:55.334Z,25.70
2022-09-10T12:14:25.754Z,25.65
2022-09-10T12:17:27.235Z,25.79
2022-09-10T12:19:57.164Z,25.65
2022-09-10T12:22:39.935Z,25.74
2022-09-10T12:25:31.659Z,25.78
2022-09-10T12:28:43.648Z,25.86
2022-09-10T12:32:29.152Z,25.74
2022-09-10T12:35:35.771Z,25.78
2022-09-10T12:39:03.600Z,25.74
2022-09-10T12:41:31.382Z,25.77
2022-09-10T12:44:01.508Z,25.82
2022-09-10T12:46:32.107Z,25.91
2022-09-10T12:49:13.391Z,25.91
2022-09-10T12:51:49.962Z,25.90
2022-09-10T12:54:41.065Z,25.93
2022-09-10T12:57:58.854Z,25.90
2022-09-10T13:00:56.397Z,25.93
2022-09-10T13:03:30.307Z,26.04
2022-09-10T13:06:04.276Z,26.07
2022-09-10T13:08:43.928Z,26.07
2022-09-10T13:11:21.241Z,26.03
2022-09-10T13:13:49.014Z,25.98
2022-09-10T13:16:28.311Z,26.03
2022-09-10T13:19:14.620Z,26.01
2022-09-10T13:21:45.484Z,25.95
2022-09-10T13:24:34.357Z,25.92
2022-09-10T13:27:41.933Z,25.83
2022-09-10T13:30:23.131Z,25.78
2022-09-10T13:33:11.643Z,25.66
2022-09-10T13:35:49.424Z,25.50
2022-09-10T13:39:03.585Z,25.32
2022-09-10T13:42:26.215Z,25.27
2022-09-10T13:45:27.081Z,25.25
2022-09-10T13:48:21.566Z,25.25
2022-09-10T13:50:58.431Z,25.28
2022-09-10T13:53:32.719Z,25.28
2022-09-10T13:56:12.371Z,25.27
2022-09-10T13:58:56.841Z,25.29
2022-09-10T14:01:55.234Z,25.30
2022-09-10T14:04:29.932Z,25.35
2022-09-10T14:07:17.633Z,25.34
2022-09-10T14:09:50.548Z,25.35
2022-09-10T14:12:23.548Z,25.42
2022-09-10T14:14:57.187Z,25.41
2022-09-10T14:17:43.726Z,25.39
2022-09-10T14:20:25.877Z,25.35
2022-09-10T14:23:14.647Z,25.09
2022-09-10T14:25:45.504Z,25.21
2022-09-10T14:28:23.743Z,25.31
2022-09-10T14:31:14.163Z,25.29
2022-09-10T14:33:43.517Z,25.29
2022-09-10T14:36:23.601Z,25.33
2022-09-10T14:38:58.944Z,25.29
2022-09-10T14:41:31.551Z,25.31
2022-09-10T14:44:22.296Z,25.30
2022-09-10T14:47:00.223Z,25.26
2022-09-10T14:49:41.527Z,25.23
2022-09-10T14:52:11.988Z,25.32
2022-09-10T14:54:40.388Z,25.28
2022-09-10T14:57:14.934Z,25.27
2022-09-10T14:59:48.966Z,25.26
2022-09-10T15:02:31.236Z,25.25
2022-09-10T15:05:01.073Z,25.20
2022-09-10T15:07:31.901Z,25.21
2022-09-10T15:10:01.671Z,25.16
2022-09-10T15:12:32.338Z,25.16
2022-09-10T15:15:01.762Z,25.15
2022-09-10T15:17:29.983Z,25.12
2022-09-10T15:19:58.058Z,24.99
2022-09-10T15:22:30.146Z,24.99
2022-09-10T15:25:09.494Z,24.99
2022-09-10T15:27:39.046Z,24.91
2022-09-10T15:30:08.002Z,24.90
2022-09-10T15:32:36.042Z,24.94
2022-09-10T15:35:05.524Z,24.93
2022-09-10T15:37:34.044Z,25.00
2022-09-10T15:40:04.438Z,24.98
2022-09-10T15:42:35.033Z,24.84
2022-09-10T15:45:02.843Z,24.95
2022-09-10T15:47:33.903Z,25.05
2022-09-10T15:50:05.138Z,25.02
2022-09-10T15:52:33.303Z,24.85
2022-09-10T15:55:01.429Z,24.86
2022-09-10T15:57:34.032Z,25.03
2022-09-10T16:00:05.240Z,25.05
2022-09-10T16:02:34.196Z,24.98
2022-09-10T16:05:02.533Z,25.01
2022-09-10T16:07:30.837Z,24.97
2022-09-10T16:09:58.825Z,24.92
2022-09-10T16:12:27.431Z,24.92
2022-09-10T16:14:55.492Z,24.91
2022-09-10T16:17:24.810Z,24.94
2022-09-10T16:19:54.620Z,24.90
2022-09-10T16:22:22.519Z,24.91
2022-09-10T16:24:50.919Z,24.84
2022-09-10T16:27:19.871Z,24.89
2022-09-10T16:29:48.529Z,24.88
2022-09-10T16:32:18.194Z,24.84
2022-09-10T16:34:46.281Z,24.79
2022-09-10T16:37:14.269Z,24.78
2022-09-10T16:39:42.502Z,24.80
2022-09-10T16:42:10.969Z,24.76
2022-09-10T16:44:41.644Z,24.75
2022-09-10T16:47:09.622Z,24.73
2022-09-10T16:49:38.658Z,24.67
2022-09-10T16:52:06.892Z,24.57
2022-09-10T16:54:35.274Z,24.60
2022-09-10T16:57:04.071Z,24.51
2022-09-10T16:59:32.347Z,24.49
2022-09-10T17:02:01.198Z,24.48
2022-09-10T17:04:29.615Z,24.44
2022-09-10T17:06:58.406Z,24.39
2022-09-10T17:09:28.183Z,24.40
2022-09-10T17:11:56.418Z,24.38
2022-09-10T17:14:24.673Z,24.32
2022-09-10T17:16:53.773Z,24.27
2022-09-10T17:19:24.655Z,24.27
2022-09-10T17:21:56.087Z,24.17
2022-09-10T17:24:25.747Z,23.89
2022-09-10T17:26:55.774Z,24.04
2022-09-10T17:29:26.191Z,24.03
2022-09-10T17:31:58.300Z,23.99
2022-09-10T17:34:27.287Z,23.93
2022-09-10T17:36:56.231Z,23.91
2022-09-10T17:39:28.199Z,23.88
2022-09-10T17:41:58.951Z,23.76
2022-09-10T17:44:30.506Z,23.71
2022-09-10T17:46:58.825Z,23.60
2022-09-10T17:49:27.141Z,23.65
2022-09-10T17:51:58.048Z,23.62
2022-09-10T17:54:26.699Z,23.55
2022-09-10T17:56:54.929Z,23.45
2022-09-10T17:59:24.949Z,23.54
2022-09-10T18:01:53.048Z,23.48
2022-09-10T18:04:22.026Z,23.46
2022-09-10T18:06:52.545Z,23.43
2022-09-10T18:09:22.198Z,23.35
2022-09-10T18:11:50.499Z,23.34
2022-09-10T18:14:21.928Z,23.32
2022-09-10T18:16:51.745Z,23.10
2022-09-10T18:19:20.514Z,23.21
2022-09-10T18:21:49.747Z,23.23
2022-09-10T18:24:22.833Z,23.26
2022-09-10T18:26:57.504Z,23.27
2022-09-10T18:29:45.652Z,23.18
2022-09-10T18:32:34.587Z,23.20
2022-09-10T18:35:03.046Z,23.16
2022-09-10T18:37:31.125Z,23.18
2022-09-10T18:40:00.417Z,23.18
2022-09-10T18:42:28.606Z,23.16
2022-09-10T18:44:58.720Z,23.13
2022-09-10T18:47:44.056Z,23.14
2022-09-10T18:50:14.002Z,23.15
2022-09-10T18:52:42.151Z,23.13
2022-09-10T18:55:11.114Z,23.14
2022-09-10T18:57:41.977Z,23.13
2022-09-10T19:00:11.411Z,23.08
2022-09-10T19:02:39.987Z,23.06
2022-09-10T19:05:12.255Z,23.04
2022-09-10T19:07:42.051Z,23.01
2022-09-10T19:10:10.462Z,22.99
2022-09-10T19:12:39.413Z,22.98
2022-09-10T19:15:10.882Z,23.01
2022-09-10T19:17:39.907Z,22.99
2022-09-10T19:20:10.116Z,22.94
2022-09-10T19:22:41.139Z,22.94
2022-09-10T19:25:09.838Z,22.86
2022-09-10T19:27:39.141Z,22.89
2022-09-10T19:30:08.163Z,22.80
2022-09-10T19:32:36.343Z,22.91
2022-09-10T19:35:06.379Z,22.88
2022-09-10T19:37:36.024Z,22.82
2022-09-10T19:40:04.341Z,22.83
2022-09-10T19:42:32.343Z,22.82
2022-09-10T19:45:01.340Z,22.67
2022-09-10T19:47:29.771Z,22.77
2022-09-10T19:49:59.219Z,22.69
2022-09-10T19:52:29.011Z,22.70
2022-09-10T19:54:57.942Z,22.69
2022-09-10T19:57:26.523Z,22.56
2022-09-10T19:59:55.745Z,22.67
2022-09-10T20:02:25.121Z,22.62
2022-09-10T20:04:53.786Z,22.57
2022-09-10T20:07:21.831Z,22.64
2022-09-10T20:09:49.832Z,22.64
2022-09-10T20:12:17.996Z,22.63
2022-09-10T20:14:45.924Z,22.59
2022-09-10T20:17:16.296Z,22.57
2022-09-10T20:19:44.428Z,22.61
2022-09-10T20:22:14.787Z,22.57
2022-09-10T20:24:43.089Z,22.60
2022-09-10T20:27:11.550Z,22.59
2022-09-10T20:29:41.430Z,22.60
2022-09-10T20:32:09.511Z,22.62
2022-09-10T20:34:37.377Z,22.60
2022-09-10T20:37:05.252Z,22.57
2022-09-10T20:39:34.728Z,22.58
2022-09-10T20:42:03.332Z,22.55
2022-09-10T20:44:33.082Z,22.53
2022-09-10T20:47:01.046Z,22.45
2022-09-10T20:49:29.219Z,22.41
2022-09-10T20:51:57.197Z,22.45
2022-09-10T20:54:25.678Z,22.34
2022-09-10T20:56:53.584Z,22.36
2022-09-10T20:59:24.380Z,22.29
2022-09-10T21:01:56.587Z,22.28
2022-09-10T21:04:26.753Z,22.23
2022-09-10T21:06:55.321Z,22.22
2022-09-10T21:09:23.279Z,22.20
2022-09-10T21:11:51.629Z,22.13
2022-09-10T21:14:19.537Z,22.10
2022-09-10T21:16:47.736Z,22.11
2022-09-10T21:19:17.425Z,22.05
2022-09-10T21:21:46.329Z,22.05
2022-09-10T21:24:22.451Z,21.95
2022-09-10T21:26:50.975Z,21.98
2022-09-10T21:29:21.133Z,21.97
2022-09-10T21:31:54.720Z,21.98
2022-09-10T21:34:23.581Z,21.95
2022-09-10T21:36:51.782Z,21.90
2022-09-10T21:39:19.913Z,21.88
2022-09-10T21:41:50.745Z,21.90
2022-09-10T21:44:22.286Z,21.84
2022-09-10T21:46:51.975Z,21.85
2022-09-10T21:49:21.052Z,21.83
2022-09-10T21:51:49.267Z,21.82
2022-09-10T21:54:20.894Z,21.88
2022-09-10T21:56:52.273Z,21.84
2022-09-10T21:59:21.713Z,21.56
2022-09-10T22:01:49.991Z,21.76
2022-09-10T22:04:22.515Z,21.79
2022-09-10T22:06:52.887Z,21.80
2022-09-10T22:09:21.540Z,21.81
2022-09-10T22:11:54.061Z,21.75
2022-09-10T22:14:24.219Z,21.80
2022-09-10T22:16:53.592Z,21.79
2022-09-10T22:19:27.232Z,21.84
2022-09-10T22:21:57.123Z,21.80
2022-09-10T22:24:26.177Z,21.73
2022-09-10T22:26:54.815Z,21.75
2022-09-10T22:29:24.946Z,21.77
2022-09-10T22:31:52.825Z,21.70
2022-09-10T22:34:20.842Z,21.72
2022-09-10T22:36:49.757Z,21.72
2022-09-10T22:39:20.772Z,21.73
2022-09-10T22:41:51.209Z,21.70
2022-09-10T22:44:20.006Z,21.59
2022-09-10T22:46:50.144Z,21.68
2022-09-10T22:49:18.308Z,21.62
2022-09-10T22:51:47.270Z,21.69
2022-09-10T22:54:18.829Z,21.64
2022-09-10T22:56:46.773Z,21.68
2022-09-10T22:59:16.101Z,21.64
2022-09-10T23:01:48.856Z,21.60
2022-09-10T23:04:17.502Z,21.67
2022-09-10T23:06:45.455Z,21.59
2022-09-10T23:09:17.865Z,21.60
2022-09-10T23:11:46.190Z,21.67
2022-09-10T23:14:19.050Z,21.63
2022-09-10T23:16:50.800Z,21.60
2022-09-10T23:19:24.894Z,21.57
2022-09-10T23:21:54.987Z,21.62
2022-09-10T23:24:24.954Z,21.59
2022-09-10T23:26:53.847Z,21.61
2022-09-10T23:29:23.981Z,21.62
2022-09-10T23:31:56.031Z,21.60
2022-09-10T23:34:24.435Z,21.59
2022-09-10T23:36:52.647Z,21.60
2022-09-10T23:39:23.831Z,21.56
2022-09-10T23:41:56.843Z,21.59
2022-09-10T23:44:25.684Z,21.52
2022-09-10T23:46:53.799Z,21.59
2022-09-10T23:49:24.543Z,21.60
2022-09-10T23:51:53.072Z,21.57
2022-09-10T23:54:21.378Z,21.57
2022-09-10T23:56:49.446Z,21.59
2022-09-10T23:59:17.965Z,21.47
